Terminal Aerodrome Forecast
Issued by NWS Upton, NY

Current Version | Previous Version | Text Only | Print | Product List | Glossary On
Versions: 1 2 3 4 5 6 7 8 9 10 11 12 13 14 15 16 17 18 19 20 21 22 23 24 25 26
205
FTUS41 KOKX 270532
TAFBDR
TAF
KBDR 270532Z 2706/2806 VRB04KT P6SM SCT250
     FM271500 18010KT P6SM SCT015 SCT080 BKN200
     FM271800 18012G18KT P6SM SCT025 SCT050 OVC150
     FM280200 18009KT P6SM SCT025 OVC050=

USA.gov is the U.S. government's official web portal to all federal, state and local government web resources and services.